createdAt,value
2017-03-25T07:43:36.186Z,968.94
2017-03-25T07:44:16.751Z,968.95
2017-03-25T07:44:57.323Z,968.91
2017-03-25T07:45:37.901Z,968.97
2017-03-25T07:46:18.477Z,968.94
2017-03-25T07:46:59.041Z,968.94
2017-03-25T07:47:39.622Z,968.84
2017-03-25T07:48:20.268Z,968.95
2017-03-25T07:49:00.957Z,968.86
2017-03-25T07:49:41.658Z,968.93
2017-03-25T07:50:22.243Z,968.98
2017-03-25T07:51:02.812Z,968.85
2017-03-25T07:51:43.390Z,968.89
2017-03-25T07:52:23.977Z,968.91
2017-03-25T07:53:04.555Z,968.96
2017-03-25T07:53:45.129Z,968.89
2017-03-25T07:54:27.213Z,968.92
2017-03-25T07:55:07.624Z,968.92
2017-03-25T07:55:47.649Z,968.87
2017-03-25T07:56:28.233Z,968.87
2017-03-25T07:57:08.814Z,968.85
2017-03-25T07:57:49.444Z,968.94
2017-03-25T07:58:29.978Z,968.91
2017-03-25T07:59:10.560Z,968.89
2017-03-25T07:59:51.177Z,968.93
2017-03-25T08:00:31.760Z,968.79
2017-03-25T08:01:12.674Z,968.82
2017-03-25T08:01:53.254Z,968.83
2017-03-25T08:02:33.839Z,968.92
2017-03-25T08:03:14.422Z,968.95
2017-03-25T08:03:55.003Z,968.88
2017-03-25T08:04:35.584Z,968.85
2017-03-25T08:05:16.163Z,968.98
2017-03-25T08:05:56.752Z,968.9
2017-03-25T08:06:37.332Z,968.99
2017-03-25T08:07:17.911Z,969
2017-03-25T08:07:58.496Z,968.95
2017-03-25T08:08:39.073Z,968.86
2017-03-25T08:09:19.647Z,968.89
2017-03-25T08:10:00.218Z,968.92
2017-03-25T08:10:40.810Z,968.89
2017-03-25T08:11:21.376Z,968.92
2017-03-25T08:12:01.966Z,968.94
2017-03-25T08:12:42.529Z,969
2017-03-25T08:13:23.111Z,968.91
2017-03-25T08:14:03.692Z,968.93
2017-03-25T08:14:44.270Z,968.94
2017-03-25T08:15:24.853Z,968.87
2017-03-25T08:16:05.430Z,968.89
2017-03-25T08:16:46.010Z,968.85
2017-03-25T08:17:26.586Z,968.87
2017-03-25T08:18:07.165Z,968.85
2017-03-25T08:18:47.751Z,968.89
2017-03-25T08:19:28.342Z,968.8
2017-03-25T08:20:08.927Z,968.78
2017-03-25T08:20:49.498Z,968.83
2017-03-25T08:21:30.079Z,968.84
2017-03-25T08:22:10.642Z,968.8
2017-03-25T08:22:51.222Z,968.82
2017-03-25T08:23:31.819Z,968.78
2017-03-25T08:24:12.393Z,968.78
2017-03-25T08:24:52.971Z,968.86
2017-03-25T08:25:33.553Z,968.8
2017-03-25T08:26:14.125Z,968.75
2017-03-25T08:26:54.715Z,968.72
2017-03-25T08:27:35.292Z,968.72
2017-03-25T08:28:15.876Z,968.7
2017-03-25T08:28:56.450Z,968.72
2017-03-25T08:29:37.032Z,968.69
2017-03-25T08:30:17.605Z,968.7
2017-03-25T08:30:58.176Z,968.68
2017-03-25T08:31:38.757Z,968.67
2017-03-25T08:32:19.339Z,968.66
2017-03-25T08:32:59.917Z,968.62
2017-03-25T08:33:40.490Z,968.69
2017-03-25T08:34:21.084Z,968.66
2017-03-25T08:35:01.662Z,968.64
2017-03-25T08:35:42.241Z,968.65
2017-03-25T08:36:22.831Z,968.59
2017-03-25T08:37:03.408Z,968.62
2017-03-25T08:37:43.978Z,968.6
2017-03-25T08:38:24.565Z,968.68
2017-03-25T08:39:05.137Z,968.66
2017-03-25T08:39:45.715Z,968.69
2017-03-25T08:40:26.294Z,968.65
2017-03-25T08:41:06.876Z,968.59
2017-03-25T08:41:47.456Z,968.59
2017-03-25T08:42:28.029Z,968.64
2017-03-25T08:43:08.600Z,968.59
2017-03-25T08:43:49.195Z,968.65
2017-03-25T08:44:29.773Z,968.64
2017-03-25T08:45:10.360Z,968.6
2017-03-25T08:45:50.941Z,968.67
2017-03-25T08:46:31.513Z,968.59
2017-03-25T08:47:12.113Z,968.62
2017-03-25T08:47:52.667Z,968.57
2017-03-25T08:48:33.244Z,968.61
2017-03-25T08:49:13.841Z,968.56
2017-03-25T08:49:54.521Z,968.53
2017-03-25T08:50:35.296Z,968.49
2017-03-25T08:51:16.111Z,968.49
2017-03-25T08:51:56.683Z,968.56
2017-03-25T08:52:37.262Z,968.6
2017-03-25T08:53:17.840Z,968.58
2017-03-25T08:53:58.421Z,968.56
2017-03-25T08:54:39.010Z,968.52
2017-03-25T08:55:19.595Z,968.54
2017-03-25T08:56:00.167Z,968.61
2017-03-25T08:56:40.741Z,968.55
2017-03-25T08:57:21.326Z,968.6
2017-03-25T08:58:01.898Z,968.61
2017-03-25T08:58:42.469Z,968.59
2017-03-25T08:59:23.056Z,968.54
2017-03-25T09:00:03.628Z,968.58
2017-03-25T09:00:44.199Z,968.54
2017-03-25T09:01:24.771Z,968.51
2017-03-25T09:02:05.346Z,968.49
2017-03-25T09:02:45.927Z,968.54
2017-03-25T09:03:26.521Z,968.48
2017-03-25T09:04:07.128Z,968.49
2017-03-25T09:04:47.693Z,968.5
2017-03-25T09:05:28.290Z,968.5
2017-03-25T09:06:08.865Z,968.58
2017-03-25T09:06:49.449Z,968.44
2017-03-25T09:07:30.028Z,968.44
2017-03-25T09:08:10.597Z,968.39
2017-03-25T09:08:51.239Z,968.4
2017-03-25T09:09:31.851Z,968.41
2017-03-25T09:10:12.445Z,968.36
2017-03-25T09:10:53.027Z,968.37
2017-03-25T09:11:33.626Z,968.42
2017-03-25T09:12:14.196Z,968.38
2017-03-25T09:12:54.767Z,968.37
2017-03-25T09:13:35.362Z,968.36
2017-03-25T09:14:15.939Z,968.33
2017-03-25T09:14:56.564Z,968.33
2017-03-25T09:15:37.213Z,968.37
2017-03-25T09:16:17.798Z,968.39
2017-03-25T09:16:58.374Z,968.34
2017-03-25T09:17:39.119Z,968.31
2017-03-25T09:18:19.901Z,968.36
2017-03-25T09:19:00.485Z,968.32
2017-03-25T09:19:41.070Z,968.35
2017-03-25T09:20:21.650Z,968.3
2017-03-25T09:21:02.232Z,968.3
2017-03-25T09:21:42.816Z,968.33
2017-03-25T09:22:23.407Z,968.35
2017-03-25T09:23:04.147Z,968.39
2017-03-25T09:23:44.726Z,968.35
2017-03-25T09:24:25.310Z,968.45
2017-03-25T09:25:05.882Z,968.39
2017-03-25T09:25:46.454Z,968.34
2017-03-25T09:26:27.037Z,968.35
2017-03-25T09:27:07.611Z,968.33
2017-03-25T09:27:48.279Z,968.3
2017-03-25T09:28:28.910Z,968.27
2017-03-25T09:29:09.718Z,968.27
2017-03-25T09:29:50.715Z,968.29
2017-03-25T09:30:31.295Z,968.25
2017-03-25T09:31:11.879Z,968.3
2017-03-25T09:31:52.664Z,968.24
2017-03-25T09:32:33.370Z,968.27
2017-03-25T09:33:14.144Z,968.24
2017-03-25T09:33:54.721Z,968.29
2017-03-25T09:34:35.373Z,968.25
2017-03-25T09:35:15.947Z,968.26
2017-03-25T09:35:56.529Z,968.2
2017-03-25T09:36:37.108Z,968.21
2017-03-25T09:37:17.680Z,968.24
2017-03-25T09:37:58.328Z,968.27
2017-03-25T09:38:39.037Z,968.27
2017-03-25T09:39:19.604Z,968.22
2017-03-25T09:40:00.198Z,968.23
2017-03-25T09:40:40.821Z,968.21
2017-03-25T09:41:21.403Z,968.23
2017-03-25T09:42:01.988Z,968.24
2017-03-25T09:42:42.568Z,968.22
2017-03-25T09:43:23.137Z,968.21
2017-03-25T09:44:03.732Z,968.3
2017-03-25T09:44:44.312Z,968.28
2017-03-25T09:45:24.956Z,968.25
2017-03-25T09:46:05.827Z,968.22
2017-03-25T09:46:46.415Z,968.33
2017-03-25T09:47:26.992Z,968.25
2017-03-25T09:48:07.573Z,968.33
2017-03-25T09:48:48.153Z,968.26
2017-03-25T09:49:28.740Z,968.29
2017-03-25T09:50:09.323Z,968.29
2017-03-25T09:50:49.916Z,968.18
2017-03-25T09:51:30.485Z,968.21
2017-03-25T09:52:11.059Z,968.21
2017-03-25T09:52:51.639Z,968.15
2017-03-25T09:53:32.387Z,968.25
2017-03-25T09:54:13.197Z,968.15
2017-03-25T09:54:53.780Z,968.15
2017-03-25T09:55:34.497Z,968.14
2017-03-25T09:56:15.457Z,968.15
2017-03-25T09:56:56.566Z,968.16
2017-03-25T09:57:37.378Z,968.14
2017-03-25T09:58:18.491Z,968.16
2017-03-25T09:58:59.429Z,968.07
2017-03-25T09:59:40.333Z,968.05
2017-03-25T10:00:20.912Z,968.07
2017-03-25T10:01:01.493Z,968.1
2017-03-25T10:01:42.270Z,968.03
2017-03-25T10:02:23.081Z,968.1
2017-03-25T10:03:03.655Z,968.07
2017-03-25T10:03:44.274Z,968.08
2017-03-25T10:04:24.809Z,968.01
2017-03-25T10:05:05.388Z,968.1
2017-03-25T10:05:45.948Z,968.05
2017-03-25T10:06:26.526Z,968.11
2017-03-25T10:07:07.506Z,968.06
2017-03-25T10:07:48.402Z,968.05
2017-03-25T10:08:29.116Z,968.02
2017-03-25T10:09:10.025Z,968.11
2017-03-25T10:09:51.324Z,968.12
2017-03-25T10:10:32.087Z,968.13
2017-03-25T10:11:12.999Z,968.09
2017-03-25T10:11:53.660Z,968.05
2017-03-25T10:12:34.321Z,968.11
2017-03-25T10:13:15.231Z,968
2017-03-25T10:13:55.802Z,968.07
2017-03-25T10:14:36.575Z,968
2017-03-25T10:15:17.156Z,967.98
2017-03-25T10:15:57.901Z,967.97
2017-03-25T10:16:38.687Z,967.98
2017-03-25T10:17:19.460Z,967.99
2017-03-25T10:18:00.234Z,967.98
2017-03-25T10:18:40.870Z,967.91
2017-03-25T10:19:21.451Z,967.95
2017-03-25T10:20:02.030Z,967.97
2017-03-25T10:20:43.105Z,967.98
2017-03-25T10:21:23.905Z,967.9
2017-03-25T10:22:04.490Z,967.86
2017-03-25T10:22:45.072Z,967.85
2017-03-25T10:23:25.654Z,967.85
2017-03-25T10:24:06.236Z,967.87
2017-03-25T10:24:46.818Z,967.87
2017-03-25T10:25:27.407Z,967.86
2017-03-25T10:26:08.060Z,967.91
2017-03-25T10:26:48.748Z,967.86
2017-03-25T10:27:29.493Z,967.84
2017-03-25T10:28:10.070Z,967.87
2017-03-25T10:28:50.634Z,967.86
2017-03-25T10:29:31.219Z,967.93
2017-03-25T10:30:11.957Z,967.88
2017-03-25T10:30:52.543Z,967.86
2017-03-25T10:31:33.355Z,967.84
2017-03-25T10:32:13.939Z,967.9
2017-03-25T10:32:55.493Z,967.97
2017-03-25T10:33:36.073Z,967.79
2017-03-25T10:34:16.655Z,967.81
2017-03-25T10:34:57.237Z,967.77
2017-03-25T10:35:37.844Z,967.78
2017-03-25T10:36:18.399Z,967.8
2017-03-25T10:36:58.977Z,967.8
2017-03-25T10:37:39.571Z,967.76
2017-03-25T10:38:20.156Z,967.82
2017-03-25T10:39:00.739Z,967.76
2017-03-25T10:39:41.312Z,967.77
2017-03-25T10:40:21.909Z,967.82
2017-03-25T10:41:02.489Z,967.81
2017-03-25T10:41:43.066Z,967.8
2017-03-25T10:42:23.656Z,967.83
2017-03-25T10:43:04.249Z,967.84
2017-03-25T10:43:44.832Z,967.82
2017-03-25T10:44:25.415Z,967.82
2017-03-25T10:45:05.991Z,967.79
2017-03-25T10:45:46.581Z,967.79
2017-03-25T10:46:27.145Z,967.8
2017-03-25T10:47:07.731Z,967.82
2017-03-25T10:47:48.310Z,967.86
2017-03-25T10:48:28.893Z,967.91
2017-03-25T10:49:09.458Z,967.78
2017-03-25T10:49:50.057Z,967.75
2017-03-25T10:50:30.657Z,967.75
2017-03-25T10:51:11.257Z,967.73
2017-03-25T10:51:51.820Z,967.78
2017-03-25T10:52:32.395Z,967.85
2017-03-25T10:53:13.180Z,967.83
2017-03-25T10:53:53.763Z,967.74
2017-03-25T10:54:34.589Z,967.76
2017-03-25T10:55:15.171Z,967.71
2017-03-25T10:55:55.916Z,967.71
2017-03-25T10:56:36.501Z,967.67
2017-03-25T10:57:17.084Z,967.71
2017-03-25T10:57:57.677Z,967.75
2017-03-25T10:58:38.241Z,967.76
2017-03-25T10:59:18.817Z,967.81
2017-03-25T10:59:59.397Z,967.69
2017-03-25T11:00:39.977Z,967.68
2017-03-25T11:01:20.562Z,967.7
2017-03-25T11:02:01.136Z,967.66
2017-03-25T11:02:41.714Z,967.64
2017-03-25T11:03:22.300Z,967.62
2017-03-25T11:04:02.889Z,967.62
2017-03-25T11:04:43.464Z,967.62
2017-03-25T11:05:24.044Z,967.6
2017-03-25T11:06:04.622Z,967.52
2017-03-25T11:06:45.199Z,967.57
2017-03-25T11:07:25.772Z,967.52
2017-03-25T11:08:06.358Z,967.51
2017-03-25T11:08:46.936Z,967.51
2017-03-25T11:09:27.512Z,967.49
2017-03-25T11:10:08.093Z,967.47
2017-03-25T11:10:48.681Z,967.49
2017-03-25T11:11:29.267Z,967.46
2017-03-25T11:12:09.832Z,967.48
2017-03-25T11:12:50.412Z,967.42
2017-03-25T11:13:31.004Z,967.37
2017-03-25T11:14:11.588Z,967.41
2017-03-25T11:14:52.175Z,967.43
2017-03-25T11:15:32.762Z,967.4
2017-03-25T11:16:13.339Z,967.33
2017-03-25T11:16:53.916Z,967.41
2017-03-25T11:17:34.505Z,967.43
2017-03-25T11:18:15.089Z,967.4
2017-03-25T11:18:55.673Z,967.37
2017-03-25T11:19:36.265Z,967.41
2017-03-25T11:20:16.829Z,967.37
2017-03-25T11:20:57.408Z,967.37
2017-03-25T11:21:37.975Z,967.34
2017-03-25T11:22:18.558Z,967.39
2017-03-25T11:22:59.137Z,967.36
2017-03-25T11:23:39.728Z,967.35
2017-03-25T11:24:20.313Z,967.34
2017-03-25T11:25:00.898Z,967.34
2017-03-25T11:25:41.554Z,967.36
2017-03-25T11:26:22.140Z,967.31
2017-03-25T11:27:02.722Z,967.26
2017-03-25T11:27:43.314Z,967.3
2017-03-25T11:28:24.201Z,967.29
2017-03-25T11:29:04.774Z,967.23
2017-03-25T11:29:45.359Z,967.31
2017-03-25T11:30:25.940Z,967.28
2017-03-25T11:31:06.605Z,967.25
2017-03-25T11:31:47.663Z,967.24
2017-03-25T11:32:28.843Z,967.19
2017-03-25T11:33:09.653Z,967.23
2017-03-25T11:33:50.550Z,967.2
2017-03-25T11:34:31.320Z,967.2
2017-03-25T11:35:12.414Z,967.21
2017-03-25T11:35:54.237Z,967.24
2017-03-25T11:36:35.061Z,967.27
2017-03-25T11:37:16.456Z,967.23
2017-03-25T11:37:57.040Z,967.21
2017-03-25T11:38:37.624Z,967.19
2017-03-25T11:39:18.197Z,967.2
2017-03-25T11:39:58.797Z,967.09
2017-03-25T11:40:39.377Z,967.12
2017-03-25T11:41:19.950Z,967.17
2017-03-25T11:42:00.532Z,967.11
2017-03-25T11:42:41.211Z,967.09
2017-03-25T11:43:21.798Z,967.12
2017-03-25T11:44:02.381Z,967.12
2017-03-25T11:44:42.962Z,967.17
2017-03-25T11:45:23.542Z,967.09
2017-03-25T11:46:04.117Z,967.03
2017-03-25T11:46:44.695Z,966.99
2017-03-25T11:47:25.278Z,966.97
2017-03-25T11:48:05.864Z,967.06
2017-03-25T11:48:46.467Z,967.04
2017-03-25T11:49:27.035Z,967.02
2017-03-25T11:50:07.626Z,967.17
2017-03-25T11:50:48.203Z,966.99
2017-03-25T11:51:28.779Z,967
2017-03-25T11:52:09.360Z,967.01
2017-03-25T11:52:49.942Z,967.01
2017-03-25T11:53:30.526Z,966.89
2017-03-25T11:54:11.124Z,966.87
2017-03-25T11:54:51.702Z,966.86
2017-03-25T11:55:32.292Z,966.83
2017-03-25T11:56:12.885Z,966.86
2017-03-25T11:56:53.687Z,966.89
2017-03-25T11:57:34.250Z,966.83
2017-03-25T11:58:14.839Z,966.83
2017-03-25T11:58:55.419Z,966.84
2017-03-25T11:59:36.011Z,966.81
2017-03-25T12:00:16.615Z,966.84
2017-03-25T12:00:57.194Z,966.81
2017-03-25T12:01:37.759Z,966.82
2017-03-25T12:02:18.352Z,966.72
2017-03-25T12:02:58.933Z,966.85
2017-03-25T12:03:39.505Z,966.69
2017-03-25T12:04:20.090Z,966.82
2017-03-25T12:05:00.679Z,966.72
2017-03-25T12:05:41.255Z,966.7
2017-03-25T12:06:21.828Z,966.77
2017-03-25T12:07:02.428Z,966.68
2017-03-25T12:07:43.005Z,966.64
2017-03-25T12:08:23.592Z,966.68
2017-03-25T12:09:04.176Z,966.79
2017-03-25T12:09:44.755Z,966.89
2017-03-25T12:10:25.333Z,966.73
2017-03-25T12:11:05.919Z,966.71
2017-03-25T12:11:46.497Z,966.68
2017-03-25T12:12:27.086Z,966.66
2017-03-25T12:13:07.670Z,966.78
2017-03-25T12:13:48.252Z,966.69
2017-03-25T12:14:28.833Z,966.75
2017-03-25T12:15:09.412Z,966.75
2017-03-25T12:15:49.997Z,966.74
2017-03-25T12:16:30.573Z,966.7
2017-03-25T12:17:11.150Z,966.66
2017-03-25T12:17:51.730Z,966.64
2017-03-25T12:18:32.321Z,966.61
2017-03-25T12:19:12.904Z,966.64
2017-03-25T12:19:53.514Z,966.56
2017-03-25T12:20:34.099Z,966.57
2017-03-25T12:21:14.677Z,966.57
2017-03-25T12:21:55.260Z,966.6
2017-03-25T12:22:35.838Z,966.62
2017-03-25T12:23:16.417Z,966.57
2017-03-25T12:23:57.004Z,966.51
2017-03-25T12:24:37.586Z,966.51
2017-03-25T12:25:18.170Z,966.5
2017-03-25T12:25:58.752Z,966.49
2017-03-25T12:26:39.338Z,966.52
2017-03-25T12:27:19.913Z,966.53
2017-03-25T12:28:00.494Z,966.56
2017-03-25T12:28:41.079Z,966.57
2017-03-25T12:29:21.664Z,966.59
2017-03-25T12:30:02.240Z,966.51
2017-03-25T12:30:42.830Z,966.54
2017-03-25T12:31:23.408Z,966.48
2017-03-25T12:32:03.998Z,966.5
2017-03-25T12:32:44.583Z,966.45
2017-03-25T12:33:25.166Z,966.49
2017-03-25T12:34:05.768Z,966.45
2017-03-25T12:34:46.354Z,966.44
2017-03-25T12:35:26.931Z,966.46
2017-03-25T12:36:07.517Z,966.49
2017-03-25T12:36:48.095Z,966.42
2017-03-25T12:37:28.681Z,966.46
2017-03-25T12:38:09.382Z,966.51
2017-03-25T12:38:49.959Z,966.42
2017-03-25T12:39:30.536Z,966.41
2017-03-25T12:40:11.118Z,966.43
2017-03-25T12:40:51.689Z,966.46
2017-03-25T12:41:32.284Z,966.39
2017-03-25T12:42:12.867Z,966.42
2017-03-25T12:42:53.454Z,966.39
2017-03-25T12:43:34.035Z,966.38
2017-03-25T12:44:14.618Z,966.36
2017-03-25T12:44:55.191Z,966.35
2017-03-25T12:45:35.772Z,966.33
2017-03-25T12:46:16.358Z,966.3
2017-03-25T12:46:56.947Z,966.27
2017-03-25T12:47:37.538Z,966.3
2017-03-25T12:48:18.120Z,966.22
2017-03-25T12:48:58.707Z,966.18
2017-03-25T12:49:39.287Z,966.16
2017-03-25T12:50:19.864Z,966.22
2017-03-25T12:51:00.439Z,966.22
2017-03-25T12:51:41.029Z,966.17
2017-03-25T12:52:21.617Z,966.25
2017-03-25T12:53:02.193Z,966.23
2017-03-25T12:53:42.774Z,966.17
2017-03-25T12:54:23.336Z,966.18
2017-03-25T12:55:03.911Z,966.16
2017-03-25T12:55:44.485Z,966.38
2017-03-25T12:56:25.063Z,966.11
2017-03-25T12:57:05.651Z,966.12
2017-03-25T12:57:46.224Z,966.1
2017-03-25T12:58:26.808Z,966.07
2017-03-25T12:59:07.649Z,966.07
2017-03-25T12:59:48.341Z,966.01
2017-03-25T13:00:28.912Z,966.02
2017-03-25T13:01:09.486Z,965.98
2017-03-25T13:01:50.060Z,965.97
2017-03-25T13:02:30.829Z,965.99
2017-03-25T13:03:11.406Z,966.03
2017-03-25T13:03:51.983Z,966.07
2017-03-25T13:04:32.563Z,965.94
2017-03-25T13:05:13.210Z,966.05
2017-03-25T13:05:53.876Z,965.94
2017-03-25T13:06:34.620Z,966.04
2017-03-25T13:07:15.200Z,965.96
2017-03-25T13:07:55.781Z,966.11
2017-03-25T13:08:36.411Z,965.99
2017-03-25T13:09:16.993Z,965.98
2017-03-25T13:09:57.697Z,965.99
2017-03-25T13:10:38.764Z,965.91
2017-03-25T13:11:19.600Z,965.94
2017-03-25T13:12:00.441Z,965.83
2017-03-25T13:12:41.022Z,965.87
2017-03-25T13:13:21.772Z,965.91
2017-03-25T13:14:02.751Z,965.87
2017-03-25T13:14:43.748Z,965.78
2017-03-25T13:15:24.336Z,965.81
2017-03-25T13:16:04.918Z,965.8
2017-03-25T13:16:45.502Z,965.78
2017-03-25T13:17:26.306Z,965.82
2017-03-25T13:18:06.886Z,965.75
2017-03-25T13:18:47.833Z,965.75
2017-03-25T13:19:28.832Z,965.73
2017-03-25T13:20:09.640Z,965.79
2017-03-25T13:20:50.217Z,965.68
2017-03-25T13:21:31.914Z,965.73
2017-03-25T13:22:12.509Z,965.77
2017-03-25T13:22:53.464Z,965.68
2017-03-25T13:23:34.038Z,965.79
2017-03-25T13:24:15.029Z,965.72
2017-03-25T13:24:55.763Z,965.77
2017-03-25T13:25:36.347Z,965.68
2017-03-25T13:26:17.205Z,965.68
2017-03-25T13:26:57.793Z,965.67
2017-03-25T13:27:38.400Z,965.68
2017-03-25T13:28:18.987Z,965.66
2017-03-25T13:28:59.954Z,965.63
2017-03-25T13:29:40.745Z,965.71
2017-03-25T13:30:21.389Z,965.66
2017-03-25T13:31:02.342Z,965.6
2017-03-25T13:31:43.230Z,965.54
2017-03-25T13:32:23.860Z,965.58
2017-03-25T13:33:04.405Z,965.59
2017-03-25T13:33:44.987Z,965.63
2017-03-25T13:34:25.606Z,965.59
2017-03-25T13:35:06.179Z,965.57
2017-03-25T13:35:47.069Z,965.54
2017-03-25T13:36:27.644Z,965.57
2017-03-25T13:37:08.233Z,965.62
2017-03-25T13:37:49.210Z,965.52
2017-03-25T13:38:29.932Z,965.51
2017-03-25T13:39:10.537Z,965.51
2017-03-25T13:39:51.262Z,965.57
2017-03-25T13:40:32.018Z,965.45
2017-03-25T13:41:12.805Z,965.53
2017-03-25T13:41:53.686Z,965.55
2017-03-25T13:42:34.465Z,965.47
2017-03-25T13:43:15.116Z,965.47
2017-03-25T13:43:55.956Z,965.44
2017-03-25T13:44:36.521Z,965.39
2017-03-25T13:45:17.506Z,965.4
2017-03-25T13:45:58.449Z,965.43
2017-03-25T13:46:39.484Z,965.39
2017-03-25T13:47:20.068Z,965.44
2017-03-25T13:48:00.655Z,965.45
2017-03-25T13:48:41.238Z,965.39
2017-03-25T13:49:21.977Z,965.45
2017-03-25T13:50:02.711Z,965.42
2017-03-25T13:50:43.288Z,965.36
2017-03-25T13:51:23.867Z,965.4
2017-03-25T13:52:04.466Z,965.45
2017-03-25T13:52:45.047Z,965.39
2017-03-25T13:53:25.630Z,965.43
2017-03-25T13:54:06.198Z,965.4
2017-03-25T13:54:46.777Z,965.36
2017-03-25T13:55:27.360Z,965.36
2017-03-25T13:56:07.955Z,965.34
2017-03-25T13:56:48.521Z,965.32
2017-03-25T13:57:29.093Z,965.33
2017-03-25T13:58:09.675Z,965.33
2017-03-25T13:58:50.256Z,965.29
2017-03-25T13:59:30.840Z,965.29
2017-03-25T14:00:11.421Z,965.3
2017-03-25T14:00:52.003Z,965.32
2017-03-25T14:01:32.590Z,965.27
2017-03-25T14:02:13.382Z,965.34
2017-03-25T14:02:53.959Z,965.31
2017-03-25T14:03:34.548Z,965.31
2017-03-25T14:04:15.125Z,965.23
2017-03-25T14:04:55.937Z,965.3
2017-03-25T14:05:36.512Z,965.16
2017-03-25T14:06:17.093Z,965.16
2017-03-25T14:06:57.679Z,965.17
2017-03-25T14:07:38.259Z,965.2
2017-03-25T14:08:18.845Z,965.14
2017-03-25T14:08:59.428Z,965.29
2017-03-25T14:09:40.017Z,965.22
2017-03-25T14:10:20.600Z,965.19
2017-03-25T14:11:01.185Z,965.16
2017-03-25T14:11:41.767Z,965.16
2017-03-25T14:12:22.345Z,965.21
2017-03-25T14:13:02.929Z,965.16
2017-03-25T14:13:43.519Z,965.2
2017-03-25T14:14:24.104Z,965.12
2017-03-25T14:15:04.680Z,965.1
2017-03-25T14:15:45.262Z,965.08
2017-03-25T14:16:25.866Z,965.05
2017-03-25T14:17:06.451Z,965.05
2017-03-25T14:17:47.208Z,965.08
2017-03-25T14:18:28.434Z,965.09
2017-03-25T14:19:09.012Z,965.07
2017-03-25T14:19:49.600Z,965.07
2017-03-25T14:20:30.182Z,964.95
2017-03-25T14:21:10.765Z,964.98
2017-03-25T14:21:51.360Z,964.94
2017-03-25T14:22:31.932Z,964.99
2017-03-25T14:23:12.506Z,964.9
2017-03-25T14:23:53.086Z,964.94
2017-03-25T14:24:33.672Z,964.96
2017-03-25T14:25:14.256Z,964.97
2017-03-25T14:25:54.832Z,964.92
2017-03-25T14:26:35.409Z,964.93
2017-03-25T14:27:15.993Z,964.97
2017-03-25T14:27:56.560Z,964.91
2017-03-25T14:28:37.146Z,964.88
2017-03-25T14:29:17.761Z,964.89
2017-03-25T14:29:58.310Z,964.89
2017-03-25T14:30:38.895Z,964.83
2017-03-25T14:31:19.479Z,964.88
2017-03-25T14:32:00.064Z,964.91
2017-03-25T14:32:40.650Z,964.85
2017-03-25T14:33:21.233Z,964.93
2017-03-25T14:34:01.809Z,965
2017-03-25T14:34:42.392Z,964.9
2017-03-25T14:35:22.975Z,964.99
2017-03-25T14:36:03.540Z,965
2017-03-25T14:36:44.133Z,964.95
2017-03-25T14:37:24.716Z,964.93
2017-03-25T14:38:05.288Z,964.91
2017-03-25T14:38:45.876Z,964.95
2017-03-25T14:39:26.464Z,964.98
2017-03-25T14:40:07.041Z,964.98
2017-03-25T14:40:47.616Z,964.91
2017-03-25T14:41:28.201Z,965.01
2017-03-25T14:42:08.782Z,964.88
2017-03-25T14:42:49.371Z,964.92
2017-03-25T14:43:29.953Z,964.87
2017-03-25T14:44:10.680Z,964.85
2017-03-25T14:44:51.664Z,964.83
2017-03-25T14:45:32.753Z,964.81
2017-03-25T14:46:13.896Z,964.93
2017-03-25T14:46:54.720Z,964.93
2017-03-25T14:47:35.511Z,964.99
2017-03-25T14:48:16.215Z,964.92
2017-03-25T14:48:56.794Z,964.84
2017-03-25T14:49:37.383Z,964.91
2017-03-25T14:50:18.184Z,964.85
2017-03-25T14:50:58.912Z,964.89
2017-03-25T14:51:40.057Z,964.82
2017-03-25T14:52:21.254Z,964.8
2017-03-25T14:53:02.148Z,964.78
2017-03-25T14:53:43.096Z,964.81
2017-03-25T14:54:23.919Z,964.8
2017-03-25T14:55:05.135Z,964.78
2017-03-25T14:55:45.792Z,964.71
2017-03-25T14:56:26.408Z,964.71
2017-03-25T14:57:07.161Z,964.67
2017-03-25T14:57:48.226Z,964.7
2017-03-25T14:58:29.064Z,964.62
2017-03-25T14:59:09.781Z,964.66
2017-03-25T14:59:50.481Z,964.76
2017-03-25T15:00:31.458Z,964.64
2017-03-25T15:01:12.540Z,964.66
2017-03-25T15:01:53.339Z,964.63
2017-03-25T15:02:34.319Z,964.62
2017-03-25T15:03:15.205Z,964.68
2017-03-25T15:03:56.068Z,964.64
2017-03-25T15:04:36.890Z,964.62
2017-03-25T15:05:17.612Z,964.67
2017-03-25T15:05:58.183Z,964.65
2017-03-25T15:06:38.907Z,964.61
2017-03-25T15:07:19.504Z,964.61
2017-03-25T15:08:00.410Z,964.62
2017-03-25T15:08:41.370Z,964.63
2017-03-25T15:09:22.164Z,964.58
2017-03-25T15:10:02.912Z,964.65
2017-03-25T15:10:43.885Z,964.62
2017-03-25T15:11:24.696Z,964.52
2017-03-25T15:12:05.527Z,964.53
2017-03-25T15:12:46.199Z,964.54
2017-03-25T15:13:26.797Z,964.58
2017-03-25T15:14:07.839Z,964.57
2017-03-25T15:14:48.782Z,964.51
2017-03-25T15:15:29.384Z,964.52
2017-03-25T15:16:10.134Z,964.6
2017-03-25T15:16:50.913Z,964.54
2017-03-25T15:17:31.910Z,964.51
2017-03-25T15:18:12.509Z,964.53
2017-03-25T15:18:53.089Z,964.49
2017-03-25T15:19:33.752Z,964.51
2017-03-25T15:20:14.602Z,964.52
2017-03-25T15:20:55.318Z,964.5
2017-03-25T15:21:36.089Z,964.54
2017-03-25T15:22:16.888Z,964.48
2017-03-25T15:22:57.570Z,964.55
2017-03-25T15:23:38.153Z,964.51
2017-03-25T15:24:18.739Z,964.5
2017-03-25T15:24:59.311Z,964.49
2017-03-25T15:25:39.895Z,964.49
2017-03-25T15:26:20.466Z,964.47
2017-03-25T15:27:01.052Z,964.52
2017-03-25T15:27:42.042Z,964.52
2017-03-25T15:28:22.867Z,964.46
2017-03-25T15:29:03.751Z,964.43
2017-03-25T15:29:44.615Z,964.55
2017-03-25T15:30:25.294Z,964.44
2017-03-25T15:31:06.152Z,964.51
2017-03-25T15:31:46.845Z,964.45
2017-03-25T15:32:27.738Z,964.52
2017-03-25T15:33:08.680Z,964.41
2017-03-25T15:33:49.543Z,964.47
2017-03-25T15:34:30.655Z,964.45
2017-03-25T15:35:11.756Z,964.44
2017-03-25T15:35:52.574Z,964.52
2017-03-25T15:36:33.649Z,964.46
2017-03-25T15:37:14.634Z,964.47
2017-03-25T15:37:55.555Z,964.56
2017-03-25T15:38:36.262Z,964.41
2017-03-25T15:39:16.988Z,964.42
2017-03-25T15:39:57.971Z,964.4
2017-03-25T15:40:39.161Z,964.41
2017-03-25T15:41:19.900Z,964.45
2017-03-25T15:42:00.520Z,964.39
2017-03-25T15:42:41.246Z,964.38
2017-03-25T15:43:22.209Z,964.32
2017-03-25T15:44:02.971Z,964.36
2017-03-25T15:44:43.767Z,964.39
2017-03-25T15:45:24.428Z,964.46
2017-03-25T15:46:05.163Z,964.43
2017-03-25T15:46:45.889Z,964.39
2017-03-25T15:47:26.575Z,964.39
2017-03-25T15:48:07.382Z,964.36
2017-03-25T15:48:48.347Z,964.35
2017-03-25T15:49:29.181Z,964.38
2017-03-25T15:50:09.965Z,964.36
2017-03-25T15:50:50.554Z,964.37
2017-03-25T15:51:31.122Z,964.31
2017-03-25T15:52:11.691Z,964.29
2017-03-25T15:52:52.280Z,964.29
2017-03-25T15:53:32.852Z,964.26
2017-03-25T15:54:13.436Z,964.25
2017-03-25T15:54:54.018Z,964.33
2017-03-25T15:55:34.606Z,964.28
2017-03-25T15:56:15.187Z,964.32
2017-03-25T15:56:55.776Z,964.29
2017-03-25T15:57:36.365Z,964.28
2017-03-25T15:58:16.946Z,964.24
2017-03-25T15:58:57.532Z,964.24
2017-03-25T15:59:38.115Z,964.26
2017-03-25T16:01:56.064Z,964.21
2017-03-25T16:02:36.642Z,964.22
2017-03-25T16:03:27.729Z,964.19
2017-03-25T16:04:08.314Z,964.21
2017-03-25T16:04:48.896Z,964.21
2017-03-25T16:05:31.052Z,964.2
2017-03-25T16:06:12.456Z,964.17
2017-03-25T16:06:53.102Z,964.08
2017-03-25T16:07:33.813Z,964.19
2017-03-25T16:08:14.393Z,964.12
2017-03-25T16:08:54.974Z,964.17
2017-03-25T16:09:35.548Z,964.09
2017-03-25T16:10:16.134Z,964.12
2017-03-25T16:11:03.581Z,964.1
2017-03-25T16:11:44.161Z,964.11
2017-03-25T16:12:24.745Z,964.16
2017-03-25T16:13:05.333Z,964.1
2017-03-25T16:13:45.915Z,964.06
2017-03-25T16:14:26.495Z,964.15